Schleswig Jagel, Germany

4:02 AM CET on February 28, 2015 (GMT +0100)
ISCHLESW61 | Change Station
CLOSE
Current Station
Personal Weather Station
Location: Treia, SCHLESWIG-HOLSTEIN
Elevation: 15 ft
Nearby Weather Stations

Elev 15 ft 54.51 °N, 9.31 °E | Updated 2 minutes ago

Mostly Cloudy
Mostly Cloudy
35.1 °F
Feels Like 35 °F
N
1.2
Wind Variable Wind from NW
Gusts 2.0 mph

Today
High -- | Low -- °F
--% Chance of Precip.
Yesterday
High -- | Low -- °F
Precip. -- in
7:14 AM 5:55 PM
Waxing Gibbous, 74% visible
Pressure 30.04 in
Visibility 6.2 miles
Clouds Mostly Cloudy 3500 ft
Windchill 35 °F
Dew Point 34 °F
Humidity 97%
Rainfall 0.00 in
Snow Depth Not available.
UV 0.0 out of 12
Pollen Not available.
Air Quality Not available.
Flu Activity Not available.
METAR ETNH 280220Z 26006KT 9999 BKN035 01/01 Q1017 BLU

More Conditions Fewer Conditions

Pressure 30.04 in
Visibility 6.2 miles
Clouds Mostly Cloudy 3500 ft
Windchill 35 °F
Dew Point 34 °F
Humidity 97%
Rainfall 0.00 in
Snow Depth Not available.
UV 0.0 out of 12
Pollen Not available.
Air Quality Not available.
Flu Activity Not available.
METAR ETNH 280220Z 26006KT 9999 BKN035 01/01 Q1017 BLU

More Conditions Fewer Conditions

10-Day Weather Forecast

Almanac

Astronomy

Feb. 28, 2015 Rise Set
Actual Time
Civil Twilight
Nautical Twilight
Astronomical Twilight
Moon
Length of Visible Light
Length of Day
Tomorrow will be .
, % of the Moon is Illuminated

Today's Extremes

Country Highs Country Lows

Community

WunderPhotos

Upload Photos

1,800,951 photos uploaded!

WunderBlogs® & News

Nearby

Air Quality

  Air Quality AQ Index Pollutant
Not available.

Snow Depth

Station Depth Elevation

Earthquake Activity

City Distance Mag. Time & Date
Minimum magnitude displayed is 2.5.

Coastal Water Temperatures

Place Temperature

Nearby Weather Stations